createdAt,value
2023-06-07T00:07:02.535Z,100382.08
2023-06-07T00:22:05.805Z,100373.74
2023-06-07T00:37:08.942Z,100370.25
2023-06-07T00:52:13.149Z,100375.13
2023-06-07T01:07:18.716Z,100389.95
2023-06-07T01:22:33.993Z,100392.00
2023-06-07T01:37:37.350Z,100382.75
2023-06-07T01:52:40.688Z,100386.13
2023-06-07T02:07:49.507Z,100383.30
2023-06-07T02:22:52.655Z,100377.23
2023-06-07T02:37:55.975Z,100377.14
2023-06-07T02:52:59.260Z,100381.33
2023-06-07T03:08:02.821Z,100390.95
2023-06-07T03:23:05.959Z,100397.09
2023-06-07T03:38:08.840Z,100401.92
2023-06-07T03:53:12.974Z,100425.58
2023-06-07T04:08:15.831Z,100430.76
2023-06-07T04:23:18.637Z,100429.82
2023-06-07T04:38:23.563Z,100435.45
2023-06-07T04:53:26.710Z,100421.27
2023-06-07T05:08:29.376Z,100412.53
2023-06-07T05:23:32.472Z,100404.36
2023-06-07T05:38:38.068Z,100421.84
2023-06-07T05:53:41.097Z,100436.15
2023-06-07T06:08:44.974Z,100435.88
2023-06-07T06:23:53.120Z,100444.96
2023-06-07T06:38:56.773Z,100437.58
2023-06-07T06:53:59.661Z,100440.73
2023-06-07T07:09:02.364Z,100444.04
2023-06-07T07:24:05.805Z,100452.61
2023-06-07T07:39:08.885Z,100457.70
2023-06-07T07:54:13.334Z,100464.63
2023-06-07T08:09:16.251Z,100469.20
2023-06-07T08:24:19.291Z,100470.61
2023-06-07T08:39:22.902Z,100469.33
2023-06-07T08:54:28.268Z,100469.44
2023-06-07T09:09:32.706Z,100454.30
2023-06-07T09:24:38.528Z,100439.90
2023-06-07T09:39:41.279Z,100433.95
2023-06-07T09:54:45.865Z,100414.38
2023-06-07T10:09:53.362Z,100405.45
2023-06-07T10:25:17.161Z,100387.61
2023-06-07T10:40:21.450Z,100378.66
2023-06-07T10:55:28.958Z,100376.89
2023-06-07T11:10:36.066Z,100345.01
2023-06-07T11:25:38.932Z,100340.48
2023-06-07T11:40:41.682Z,100332.08
2023-06-07T11:55:44.812Z,100325.47
2023-06-07T12:10:55.509Z,100320.47
2023-06-07T12:26:09.456Z,100309.74
2023-06-07T12:41:12.334Z,100303.98
2023-06-07T12:56:15.572Z,100312.05
2023-06-07T13:11:19.665Z,100307.96
2023-06-07T13:26:22.940Z,100291.88
2023-06-07T13:41:29.728Z,100271.00
2023-06-07T13:56:34.316Z,100263.55
2023-06-07T14:11:39.782Z,100246.75
2023-06-07T14:26:42.618Z,100249.08
2023-06-07T14:41:45.553Z,100254.08
2023-06-07T14:56:48.288Z,100255.95
2023-06-07T15:11:51.222Z,100253.45
2023-06-07T15:26:53.976Z,100242.86
2023-06-07T15:41:56.717Z,100235.78
2023-06-07T15:56:59.488Z,100219.65
2023-06-07T16:12:02.142Z,100204.13
2023-06-07T16:27:06.454Z,100214.10
2023-06-07T16:42:09.207Z,100238.66
2023-06-07T16:57:12.330Z,100245.82
2023-06-07T17:12:16.323Z,100241.55
2023-06-07T17:27:19.161Z,100246.48
2023-06-07T17:42:22.518Z,100251.33
2023-06-07T17:57:25.249Z,100270.94
2023-06-07T18:12:28.165Z,100291.99
2023-06-07T18:27:30.910Z,100286.09
2023-06-07T18:42:33.755Z,100294.85
2023-06-07T18:57:38.969Z,100305.35
2023-06-07T19:12:41.786Z,100296.77
2023-06-07T19:27:45.772Z,100300.84
2023-06-07T19:42:48.435Z,100317.27
2023-06-07T19:57:54.936Z,100324.34
2023-06-07T20:12:57.579Z,100326.04
2023-06-07T20:28:00.554Z,100327.20
2023-06-07T20:43:03.618Z,100326.73
2023-06-07T20:58:07.446Z,100326.70
2023-06-07T21:13:10.260Z,100325.98
2023-06-07T21:28:13.271Z,100336.66
2023-06-07T21:43:16.094Z,100338.95
2023-06-07T21:58:18.742Z,100354.42
2023-06-07T22:13:22.170Z,100345.67
2023-06-07T22:28:30.753Z,100339.52
2023-06-07T22:43:33.695Z,100337.04
2023-06-07T22:58:36.352Z,100338.23
2023-06-07T23:13:39.087Z,100332.19
2023-06-07T23:28:41.863Z,100340.20
2023-06-07T23:43:44.619Z,100344.67
2023-06-07T23:58:47.417Z,100330.48
